AirNav   Air Wisconsin pilot careers
 
 1588 users online  

CL35 Warner Springs Gliderport
Warner Springs, California, USA

GOING TO WARNER SPRINGS?


FAA INFORMATION EFFECTIVE 12 SEPTEMBER 2019

Location

FAA Identifier: CL35
Lat/Long: 33-17-04.2100N 116-40-10.7650W
33-17.070167N 116-40.179417W
33.2845028,-116.6696569
(estimated)
Elevation: 2880 ft. / 878 m (estimated)
Variation: 13E (1985)
From city: 2 miles E of WARNER SPRINGS, CA
Time zone: UTC -7 (UTC -8 during Standard Time)
Zip code: 92086

Gliderport Operations

Gliderport use: Private use. Permission required prior to landing
Activation date: 10/1984
Control tower: no
ARTCC: LOS ANGELES CENTER
FSS: SAN DIEGO FLIGHT SERVICE STATION
Attendance: 0900-1700
Wind indicator: yes
Segmented circle: yes
Landing fee: yes

Gliderport Communications

UNICOM: 122.8
WX AWOS-3P at L08 (18 nm E): 126.575 (760-767-3308)
WX ASOS at RNM (19 nm SW): 132.025 (760-789-0736)

Nearby radio navigation aids

VOR radial/distance  VOR name  Freq  Var
JLIr319/9.6JULIAN VORTAC114.0015E
TRMr218/32.8THERMAL VORTAC116.2013E
PSPr186/37.1PALM SPRINGS VORTAC115.5013E
OCNr071/37.6OCEANSIDE VORTAC115.3015E
HDFr125/(39.2)HOMELAND VOR113.4014E

Gliderport Services

Runway Information

Runway 8/26

Dimensions: 3500 x 70 ft. / 1067 x 21 m
Surface: asphalt
RUNWAY 8  RUNWAY 26
Latitude: 33-17.060333N33-17.080000N
Longitude: 116-40.522667W116-39.836167W
Elevation: 2873.0 ft.2914.0 ft.
Traffic pattern: leftleft
Obstructions: none200 ft. hill, 5200 ft. from runway

Gliderport Ownership and Management from official FAA records

Ownership: Privately-owned
Owner: WARNER SPRINGS RANCH RESORT, LLC
31930 HWY 79
WARNER SPRINGS, CA 92086
Phone 760-782-4200
SKY SAILING 31930 HWY 79.
Manager: BRET WILLAT
SKY SAILING 31930 HWY 79
WARNER SPRINGS, CA 92086
Phone 760-782-0404
LEASEE.

Gliderport Operational Statistics

Aircraft based on the field: 80
Single engine airplanes: 10
Gliders airplanes: 70
    

Additional Remarks

FOR CD CTC LOS ANGELES ARTCC AT 661-575-2079.

Instrument Procedures

There are no published instrument procedures at CL35.

Some nearby airports with instrument procedures:

L08 - Borrego Valley Airport (18 nm E)
KRNM - Ramona Airport (19 nm SW)
F70 - French Valley Airport (29 nm NW)
L18 - Fallbrook Community Airpark (29 nm W)
KSEE - Gillespie Field Airport (31 nm SW)
 
Loc | Ops | Rwys | IFR | FBO | Links
Com | Nav | Svcs | Stats | Notes
Area around CL35 (Warner Springs Gliderport)
 
Road maps at: MapQuest Bing Google
 
Aerial photo
WARNING: Photo may not be current or correct
Aerial photo of CL35 (Warner Springs Gliderport)
Photo by Steve Lupinacci
Photo taken 27-May-2008

Do you have a better or more recent aerial photo of Warner Springs Gliderport that you would like to share? If so, please send us your photo.

 
Sectional chart

 
Airport distance calculator
Flying to Warner Springs Gliderport? Find the distance to fly.

From to CL35

Sunrise and sunset
Times for 17-Sep-2019
 Local
(UTC-7)
 Zulu
(UTC)
Morning civil twilight06:0813:08
Sunrise06:3213:32
Sunset18:5001:50
Evening civil twilight19:1502:15

Current date and time
Zulu (UTC)  17-Sep-2019 14:38:46
Local (UTC-7)  17-Sep-2019 07:38:46
 
METAR
KL08 
18nm E 
171415Z AUTO VRB03KT 10SM CLR 22/M06 A2987 RMK AO2
KRNM 
20nm SW 
171353Z AUTO 00000KT 10SM CLR 11/08 A2998 RMK AO2 SLP142 T01060078
KF70 
29nm NW 
171415Z AUTO 00000KT 10SM CLR 13/09 A3000 RMK AO1
KL18 
29nm W 
171415Z AUTO 02003KT 10SM OVC011 15/14 A2999 RMK AO2
KSEE 
32nm SW 
171347Z 00000KT 10SM SKC 18/15 A2997
KCRQ 
32nm W 
171407Z AUTO 00000KT 9SM BKN014 19/16 A2996 RMK AO2 T01890156
KTRM 
33nm NE 
171352Z AUTO 22003KT 10SM CLR 21/03 A2982 RMK AO2 SLP101 T02110028
KPSP 
33nm N 
171353Z VRB05KT 10SM CLR 22/04 A2987 RMK AO2 SLP109 T02170044
KNFG 
33nm W 
171355Z AUTO 05004KT 10SM OVC016 14/11 A2997 RMK AO2 SLP147 T01390111
KNKX 
34nm SW 
171402Z 08003KT 6SM HZ SCT008 18/15 A2996 RMK AO2 T01780150
TAF
KCRQ 
32nm W 
171124Z 1712/1812 VRB04KT P6SM SCT011 TEMPO 1713/1716 BKN011 FM171600 VRB04KT P6SM SCT012 FM172100 25008KT P6SM SKC FM180200 VRB04KT P6SM FEW012 FM180900 VRB04KT P6SM BKN010
KTRM 
33nm NE 
171124Z 1712/1812 32008KT P6SM SKC
KPSP 
33nm N 
171124Z 1712/1812 VRB04KT P6SM SKC FM172100 34010G19KT P6SM SKC FM180600 32006KT P6SM SKC
KNFG 
33nm W 
1709/1809 VRB05KT 9999 BKN012 QNH2990INS TEMPO 1710/1716 4800 BR OVC005 FM171700 23009KT 9999 SCT020 QNH2985INS BECMG 1806/1808 VRB05KT 9999 BKN014 QNH2996INS T16/1714Z T27/1720Z
KNKX 
34nm SW 
1709/1809 VRB05KT 9999 BKN011 QNH2990INS TEMPO 1710/1716 4800 BR OVC005 FM171630 25009KT 9999 SCT015 SCT250 QNH2994INS BECMG 1806/1808 VRB05KT 9999 OVC012 QNH2996INS T17/1712Z T28/1722Z
NOTAMs
Click for the latest NOTAMs
NOTAMs are issued by the DoD/FAA and will open in a separate window not controlled by AirNav.

 

 
 

Would you like to see your business listed on this page?

 If your business provides an interesting product or service to pilots, flight crews, aircraft, or users of the Warner Springs Gliderport, you should consider listing it here.  To start the listing process, click on the button below
 
Add a business
 

Other Pages about Warner Springs Gliderport

www.agcsc.org/warner_springs_info.html
 
Update a link
 
Copyright © AirNav, LLC. All rights reserved. Privacy Policy  Contact